Time;durP1;ratioP1;P1;durP2;ratioP2;P2;SDS_P1;SDS_P2;PMS_P1;PMS_P2;Temp;Humidity;BMP_temperature;BMP_pressure;BME280_temperature;BME280_humidity;BME280_pressure;Samples;Min_cycle;Max_cycle;Signal;HPM_P1;HPM_P2
2023/10/21 00:01:45;;;;;;;;;;;;;;;16.57;55.68;100264.28;5085298;28;1057;-53
2023/10/21 00:04:12;;;;;;;;;;;;;;;17.08;56.94;100273.25;5089175;28;1780;-51
2023/10/21 00:06:38;;;;;;;;;;;;;;;17.47;56.53;100271.50;5094742;28;1133;-49
2023/10/21 00:09:03;;;;;;;;;;;;;;;16.99;56.78;100278.53;5088781;28;1058;-49
2023/10/21 00:11:29;;;;;;;;;;;;;;;16.83;56.36;100274.25;5081113;28;957;-52
2023/10/21 00:13:54;;;;;;;;;;;;;;;16.72;56.07;100279.84;5088658;28;1902;-53
2023/10/21 00:16:20;;;;;;;;;;;;;;;16.65;55.97;100273.88;5094866;28;1026;-51
2023/10/21 00:18:46;;;;;;;;;;;;;;;16.53;55.86;100270.66;5098995;28;1186;-49
2023/10/21 00:21:12;;;;;;;;;;;;;;;17.57;56.49;100269.44;5082157;28;1086;-52
2023/10/21 00:23:37;;;;;;;;;;;;;;;17.22;57.07;100265.13;5087652;28;899;-50
2023/10/21 00:26:03;;;;;;;;;;;;;;;16.94;56.77;100264.84;5080439;28;1166;-52
2023/10/21 00:28:29;;;;;;;;;;;;;;;16.82;56.48;100269.91;5089160;28;1073;-51
2023/10/21 00:30:54;;;;;;;;;;;;;;;16.68;56.00;100270.53;5094170;28;1131;-49
2023/10/21 00:33:20;;;;;;;;;;;;;;;16.60;55.68;100260.97;5070404;28;2382;-50
2023/10/21 00:35:45;;;;;;;;;;;;;;;16.54;55.69;100266.81;5077794;28;1000;-48
2023/10/21 00:38:11;;;;;;;;;;;;;;;17.44;56.75;100268.19;5078292;28;1004;-51
2023/10/21 00:40:37;;;;;;;;;;;;;;;17.34;56.69;100262.81;5091704;28;1039;-50
2023/10/21 00:43:03;;;;;;;;;;;;;;;16.98;56.95;100260.41;5088170;28;991;-51
2023/10/21 00:45:28;;;;;;;;;;;;;;;16.82;56.33;100265.22;5084484;28;1118;-52
2023/10/21 00:47:54;;;;;;;;;;;;;;;16.67;56.33;100263.41;5069853;28;867;-50
2023/10/21 00:50:20;;;;;;;;;;;;;;;16.63;55.82;100265.06;5046931;28;1203;-51
2023/10/21 00:52:48;;;;;;;;;;;;;;;16.54;55.85;100264.06;5069797;28;1913;-50
2023/10/21 00:55:14;;;;;;;;;;;;;;;16.61;56.49;100272.78;5076166;28;1573;-51
2023/10/21 00:57:39;;;;;;;;;;;;;;;17.84;56.20;100267.19;5086040;28;1150;-47
2023/10/21 01:00:10;;;;;;;;;;;;;;;17.19;57.04;100260.22;5075210;28;1367;-52
2023/10/21 01:02:38;;;;;;;;;;;;;;;16.93;56.47;100264.03;5087584;28;1102;-51
2023/10/21 01:05:05;;;;;;;;;;;;;;;16.78;56.35;100261.41;5064559;28;1797;-48
2023/10/21 01:07:34;;;;;;;;;;;;;;;16.68;56.01;100266.97;5087196;28;1153;-49
2023/10/21 01:10:07;;;;;;;;;;;;;;;16.57;55.83;100272.53;5093012;28;1026;-49
2023/10/21 01:12:33;;;;;;;;;;;;;;;16.81;56.98;100271.00;5097552;28;1910;-52
2023/10/21 01:14:58;;;;;;;;;;;;;;;17.79;56.30;100277.16;5078623;28;1066;-50
2023/10/21 01:17:24;;;;;;;;;;;;;;;17.18;56.84;100275.06;5071573;28;1599;-49
2023/10/21 01:19:49;;;;;;;;;;;;;;;16.89;56.86;100273.16;5083629;28;1061;-48
2023/10/21 01:22:15;;;;;;;;;;;;;;;16.77;56.35;100270.72;5074965;28;1515;-49
2023/10/21 01:24:41;;;;;;;;;;;;;;;16.67;56.08;100265.34;5082211;28;1058;-47
2023/10/21 01:27:06;;;;;;;;;;;;;;;16.58;56.02;100271.44;5067055;28;1003;-50
2023/10/21 01:29:32;;;;;;;;;;;;;;;16.59;55.96;100275.00;5095434;28;1217;-49
2023/10/21 01:31:57;;;;;;;;;;;;;;;17.74;56.27;100271.72;5067165;28;1111;-46
2023/10/21 01:34:23;;;;;;;;;;;;;;;17.15;57.04;100272.91;5085372;28;2430;-51
2023/10/21 01:36:48;;;;;;;;;;;;;;;16.87;56.74;100269.84;5069825;28;1166;-51
2023/10/21 01:39:14;;;;;;;;;;;;;;;16.80;56.12;100269.34;5060328;28;1217;-50
2023/10/21 01:41:39;;;;;;;;;;;;;;;16.68;55.80;100267.78;5070568;28;1275;-51
2023/10/21 01:44:05;;;;;;;;;;;;;;;16.68;56.61;100273.28;5078263;28;1054;-50
2023/10/21 01:46:31;;;;;;;;;;;;;;;17.67;56.45;100271.25;5084674;28;998;-50
2023/10/21 01:48:56;;;;;;;;;;;;;;;17.14;56.85;100274.00;5082104;28;987;-51
2023/10/21 01:51:22;;;;;;;;;;;;;;;16.86;56.67;100269.03;5078212;28;1018;-53
2023/10/21 01:53:47;;;;;;;;;;;;;;;16.75;56.16;100270.22;5083027;28;1918;-54
2023/10/21 01:56:13;;;;;;;;;;;;;;;16.67;55.92;100276.31;5085938;28;1222;-55
2023/10/21 01:58:39;;;;;;;;;;;;;;;16.58;55.69;100274.19;5075144;28;1887;-54
2023/10/21 02:01:09;;;;;;;;;;;;;;;17.15;57.12;100279.22;5078308;28;1099;-53
2023/10/21 02:03:35;;;;;;;;;;;;;;;17.35;56.76;100280.97;5064985;28;2323;-51
2023/10/21 02:06:09;;;;;;;;;;;;;;;16.92;57.06;100278.06;5096503;28;983;-52
2023/10/21 02:08:34;;;;;;;;;;;;;;;16.74;56.59;100277.63;5090794;28;1121;-51
2023/10/21 02:11:00;;;;;;;;;;;;;;;16.64;56.32;100274.97;5083243;28;1055;-52
2023/10/21 02:13:26;;;;;;;;;;;;;;;16.57;56.02;100283.50;5096459;28;1910;-51
2023/10/21 02:15:51;;;;;;;;;;;;;;;16.49;55.88;100272.31;5078421;28;1110;-56
2023/10/21 02:18:17;;;;;;;;;;;;;;;17.28;56.97;100285.97;5096250;28;1145;-53
2023/10/21 02:20:43;;;;;;;;;;;;;;;17.56;56.56;100278.00;5096098;28;1034;-53
2023/10/21 02:23:08;;;;;;;;;;;;;;;17.06;56.78;100281.78;5089946;28;1013;-53
2023/10/21 02:25:34;;;;;;;;;;;;;;;16.87;56.47;100284.41;5069912;28;1035;-55
2023/10/21 02:28:00;;;;;;;;;;;;;;;16.76;56.31;100294.63;5090125;28;1146;-55
2023/10/21 02:30:25;;;;;;;;;;;;;;;16.69;55.94;100283.16;5076132;28;1027;-56
2023/10/21 02:32:51;;;;;;;;;;;;;;;16.56;55.72;100292.88;5062909;28;2036;-56
2023/10/21 02:35:16;;;;;;;;;;;;;;;16.50;55.73;100291.25;5091471;28;2531;-56
2023/10/21 02:37:42;;;;;;;;;;;;;;;17.10;57.05;100298.50;5077148;28;1496;-51
2023/10/21 02:40:08;;;;;;;;;;;;;;;17.49;56.81;100296.75;5087618;28;1051;-56
2023/10/21 02:42:34;;;;;;;;;;;;;;;16.99;57.23;100297.78;5077147;28;1070;-55
2023/10/21 02:45:00;;;;;;;;;;;;;;;16.84;56.67;100297.88;5084850;28;979;-54
2023/10/21 02:47:25;;;;;;;;;;;;;;;16.68;56.30;100303.47;5089279;28;1105;-57
2023/10/21 02:49:51;;;;;;;;;;;;;;;16.61;56.08;100308.47;5095858;28;1193;-54
2023/10/21 02:52:16;;;;;;;;;;;;;;;17.49;57.10;100305.81;5095582;28;1914;-54
2023/10/21 02:54:42;;;;;;;;;;;;;;;17.24;57.13;100315.16;5084729;28;1118;-56
2023/10/21 02:57:07;;;;;;;;;;;;;;;16.90;56.91;100307.72;5075633;28;1179;-55
2023/10/21 02:59:36;;;;;;;;;;;;;;;16.77;56.60;100314.66;5084304;28;1065;-56
2023/10/21 03:02:01;;;;;;;;;;;;;;;16.66;56.41;100316.69;5071032;28;1194;-55
2023/10/21 03:04:27;;;;;;;;;;;;;;;16.56;56.23;100316.75;5087484;28;2394;-54
2023/10/21 03:06:53;;;;;;;;;;;;;;;16.50;56.00;100313.22;5095001;28;1172;-55
2023/10/21 03:09:18;;;;;;;;;;;;;;;17.06;57.07;100306.50;5096029;28;1002;-54
2023/10/21 03:11:44;;;;;;;;;;;;;;;17.36;57.04;100318.34;5062995;28;1554;-55
2023/10/21 03:14:09;;;;;;;;;;;;;;;16.91;57.13;100314.88;5075449;28;1968;-48
2023/10/21 03:16:35;;;;;;;;;;;;;;;16.79;56.74;100314.38;5070659;28;1190;-53
2023/10/21 03:19:01;;;;;;;;;;;;;;;16.72;55.98;100309.22;5069622;28;1079;-53
2023/10/21 03:21:26;;;;;;;;;;;;;;;16.58;55.87;100317.28;5077123;28;1057;-49
2023/10/21 03:23:52;;;;;;;;;;;;;;;16.53;55.80;100320.06;5085078;28;988;-53
2023/10/21 03:26:17;;;;;;;;;;;;;;;17.64;56.77;100318.56;5095018;28;1049;-55
2023/10/21 03:28:43;;;;;;;;;;;;;;;17.09;57.34;100310.59;5084122;28;1157;-50
2023/10/21 03:31:09;;;;;;;;;;;;;;;16.85;56.69;100316.81;5088085;28;1189;-49
2023/10/21 03:33:35;;;;;;;;;;;;;;;16.74;56.42;100321.53;5074740;28;2419;-53
2023/10/21 03:36:01;;;;;;;;;;;;;;;16.64;56.13;100323.56;5061947;28;1058;-52
2023/10/21 03:38:27;;;;;;;;;;;;;;;16.58;55.88;100322.78;5075283;28;1086;-55
2023/10/21 03:40:57;;;;;;;;;;;;;;;16.98;56.99;100331.84;5075296;28;1089;-53
2023/10/21 03:43:23;;;;;;;;;;;;;;;17.43;57.00;100331.72;5069743;28;1416;-53
2023/10/21 03:45:49;;;;;;;;;;;;;;;16.97;56.89;100323.88;5081594;28;1113;-52
2023/10/21 03:48:14;;;;;;;;;;;;;;;16.79;56.74;100320.72;5083231;28;1093;-54
2023/10/21 03:50:40;;;;;;;;;;;;;;;16.68;56.28;100319.94;5080276;28;1054;-56
2023/10/21 03:53:05;;;;;;;;;;;;;;;16.63;56.25;100325.47;5094738;28;1975;-55
2023/10/21 03:55:31;;;;;;;;;;;;;;;16.68;56.97;100314.47;5076897;28;1182;-54
2023/10/21 03:57:56;;;;;;;;;;;;;;;17.69;57.19;100318.50;5086761;28;992;-56
2023/10/21 04:00:22;;;;;;;;;;;;;;;17.10;57.48;100318.53;5084726;28;1038;-55
2023/10/21 04:02:48;;;;;;;;;;;;;;;16.92;57.05;100308.28;5078645;28;1103;-55
2023/10/21 04:05:14;;;;;;;;;;;;;;;16.70;56.70;100312.25;5096475;28;1799;-58
2023/10/21 04:07:39;;;;;;;;;;;;;;;16.59;56.43;100321.66;5087208;28;1122;-58
2023/10/21 04:10:05;;;;;;;;;;;;;;;16.55;56.05;100312.34;5096874;28;1161;-58
2023/10/21 04:12:30;;;;;;;;;;;;;;;16.46;55.96;100303.91;5098490;28;1988;-54
2023/10/21 04:14:56;;;;;;;;;;;;;;;17.16;57.55;100307.53;5085109;28;1161;-54
2023/10/21 04:17:21;;;;;;;;;;;;;;;17.12;57.32;100304.53;5093376;28;1189;-58
2023/10/21 04:19:47;;;;;;;;;;;;;;;16.77;57.11;100307.28;5089309;28;1198;-56
2023/10/21 04:22:12;;;;;;;;;;;;;;;16.65;56.69;100308.72;5085257;28;1173;-56
2023/10/21 04:24:38;;;;;;;;;;;;;;;16.54;56.46;100306.03;5097856;28;1045;-57
2023/10/21 04:27:03;;;;;;;;;;;;;;;17.61;57.20;100310.91;5066975;28;1059;-56
2023/10/21 04:29:31;;;;;;;;;;;;;;;17.15;57.21;100308.63;5098024;28;1031;-56
2023/10/21 04:31:57;;;;;;;;;;;;;;;16.87;57.15;100311.03;5084467;28;1042;-56
2023/10/21 04:34:23;;;;;;;;;;;;;;;16.84;57.91;100308.84;5085089;28;2616;-58
2023/10/21 04:36:49;;;;;;;;;;;;;;;17.49;55.29;100308.56;5089629;28;1087;-55
2023/10/21 04:39:16;;;;;;;;;;;;;;;16.90;54.27;100313.22;5085996;28;1091;-56
2023/10/21 04:41:42;;;;;;;;;;;;;;;17.16;54.72;100326.75;5084126;28;1026;-53
2023/10/21 04:44:07;;;;;;;;;;;;;;;17.58;55.00;100325.25;5085377;28;1077;-53
2023/10/21 04:46:33;;;;;;;;;;;;;;;17.07;53.66;100321.06;5065762;28;1155;-49
2023/10/21 04:48:58;;;;;;;;;;;;;;;17.33;54.12;100329.88;5097093;28;835;-52
2023/10/21 04:51:24;;;;;;;;;;;;;;;17.47;54.75;100331.97;5078402;28;1065;-48
2023/10/21 04:53:49;;;;;;;;;;;;;;;17.15;52.70;100322.38;5085749;28;1906;-50
2023/10/21 04:56:15;;;;;;;;;;;;;;;16.95;51.38;100332.41;5078063;28;1186;-56
2023/10/21 04:58:41;;;;;;;;;;;;;;;17.70;53.37;100336.66;5082089;28;1260;-55
2023/10/21 05:01:07;;;;;;;;;;;;;;;17.39;53.22;100339.72;5095089;28;871;-49
2023/10/21 05:03:33;;;;;;;;;;;;;;;17.10;51.61;100331.47;5083799;28;2316;-50
2023/10/21 05:05:58;;;;;;;;;;;;;;;16.87;50.64;100341.22;5086236;28;998;-53
2023/10/21 05:08:24;;;;;;;;;;;;;;;18.11;52.80;100346.41;5081949;28;1055;-49
2023/10/21 05:10:49;;;;;;;;;;;;;;;17.39;52.64;100347.13;5097070;28;1188;-51
2023/10/21 05:13:16;;;;;;;;;;;;;;;17.20;50.98;100345.13;5089300;28;1968;-49
2023/10/21 05:15:42;;;;;;;;;;;;;;;17.06;49.74;100350.44;5076961;28;1089;-54
2023/10/21 05:18:07;;;;;;;;;;;;;;;16.91;49.41;100361.56;5094562;28;1078;-54
2023/10/21 05:20:33;;;;;;;;;;;;;;;16.94;48.61;100363.72;5086014;28;1153;-50
2023/10/21 05:22:58;;;;;;;;;;;;;;;17.35;50.25;100368.91;5090977;28;1146;-53
2023/10/21 05:25:24;;;;;;;;;;;;;;;17.33;51.61;100375.78;5091392;28;906;-49
2023/10/21 05:27:49;;;;;;;;;;;;;;;17.18;50.12;100374.81;5079016;28;1026;-49
2023/10/21 05:30:15;;;;;;;;;;;;;;;17.00;49.38;100376.31;5088068;28;1049;-52
2023/10/21 05:32:41;;;;;;;;;;;;;;;16.96;48.47;100380.75;5096694;28;2043;-52
2023/10/21 05:35:07;;;;;;;;;;;;;;;17.03;49.50;100378.50;5080289;28;2521;-51
2023/10/21 05:37:33;;;;;;;;;;;;;;;17.61;51.04;100391.47;5091410;28;1054;-51
2023/10/21 05:39:59;;;;;;;;;;;;;;;17.19;50.17;100398.41;5096810;28;1026;-52
2023/10/21 05:42:24;;;;;;;;;;;;;;;17.09;49.26;100393.81;5096844;28;1454;-50
2023/10/21 05:44:50;;;;;;;;;;;;;;;17.01;48.31;100388.97;5096879;28;1057;-49
2023/10/21 05:47:15;;;;;;;;;;;;;;;16.85;48.09;100388.19;5096724;28;1217;-49
2023/10/21 05:49:41;;;;;;;;;;;;;;;17.51;49.31;100399.81;5085157;28;901;-49
2023/10/21 05:52:06;;;;;;;;;;;;;;;17.33;50.15;100404.06;5080652;28;1254;-51
2023/10/21 05:54:32;;;;;;;;;;;;;;;17.12;49.38;100397.94;5086328;28;1897;-54
2023/10/21 05:56:57;;;;;;;;;;;;;;;16.98;48.42;100410.69;5093131;28;1054;-55
2023/10/21 05:59:23;;;;;;;;;;;;;;;17.57;49.88;100408.81;5086764;28;1106;-52
2023/10/21 06:01:48;;;;;;;;;;;;;;;17.29;50.33;100408.50;5089256;28;1197;-55
2023/10/21 06:04:14;;;;;;;;;;;;;;;17.11;49.37;100415.53;5077192;28;2342;-54
2023/10/21 06:06:40;;;;;;;;;;;;;;;17.03;48.48;100422.44;5092670;28;1004;-56
2023/10/21 06:09:05;;;;;;;;;;;;;;;16.94;48.01;100415.91;5096239;28;1085;-50
2023/10/21 06:11:31;;;;;;;;;;;;;;;17.71;49.88;100422.72;5096400;28;1086;-54
2023/10/21 06:13:56;;;;;;;;;;;;;;;17.17;49.58;100416.31;5096055;28;1972;-54
2023/10/21 06:16:22;;;;;;;;;;;;;;;17.06;48.86;100419.13;5093165;28;1112;-55
2023/10/21 06:18:47;;;;;;;;;;;;;;;17.04;48.20;100413.09;5076045;28;1050;-55
2023/10/21 06:21:13;;;;;;;;;;;;;;;16.89;47.91;100415.97;5091681;28;1077;-54
2023/10/21 06:23:38;;;;;;;;;;;;;;;16.88;47.36;100400.53;5086126;28;1271;-52
2023/10/21 06:26:08;;;;;;;;;;;;;;;17.76;49.05;100417.19;5081486;28;1194;-52
2023/10/21 06:28:37;;;;;;;;;;;;;;;17.20;49.52;100410.25;5079282;28;1210;-48
2023/10/21 06:31:03;;;;;;;;;;;;;;;17.06;48.63;100415.56;5089663;28;1058;-53
2023/10/21 06:33:28;;;;;;;;;;;;;;;16.98;48.05;100422.47;5095524;28;2331;-55
2023/10/21 06:35:54;;;;;;;;;;;;;;;16.91;47.72;100414.56;5095697;28;1033;-52
2023/10/21 06:38:19;;;;;;;;;;;;;;;16.85;47.36;100425.84;5077999;28;937;-48
2023/10/21 06:40:45;;;;;;;;;;;;;;;18.10;48.99;100428.13;5089329;28;1114;-52
2023/10/21 06:43:10;;;;;;;;;;;;;;;17.36;49.63;100422.75;5095916;28;1124;-49
2023/10/21 06:45:37;;;;;;;;;;;;;;;17.15;48.80;100418.53;5082550;28;1185;-51
2023/10/21 06:48:04;;;;;;;;;;;;;;;17.17;47.74;100421.81;5087966;28;1011;-46
2023/10/21 06:50:30;;;;;;;;;;;;;;;17.01;47.66;100427.41;5076481;28;862;-52
2023/10/21 06:52:56;;;;;;;;;;;;;;;16.91;47.26;100420.06;5081900;28;1914;-50
2023/10/21 06:55:21;;;;;;;;;;;;;;;16.91;46.95;100430.22;5092277;28;1126;-49
2023/10/21 06:57:47;;;;;;;;;;;;;;;16.82;47.29;100424.47;5095138;28;1110;-48
2023/10/21 07:00:13;;;;;;;;;;;;;;;17.40;48.40;100431.25;5079077;28;1054;-50
2023/10/21 07:02:38;;;;;;;;;;;;;;;17.33;48.93;100437.06;5075587;28;875;-54
2023/10/21 07:05:07;;;;;;;;;;;;;;;17.06;48.36;100424.63;5080079;28;1769;-51
2023/10/21 07:07:32;;;;;;;;;;;;;;;17.04;48.40;100432.34;5084884;28;1018;-53
2023/10/21 07:09:58;;;;;;;;;;;;;;;17.69;49.67;100436.75;5075715;28;1138;-51
2023/10/21 07:12:23;;;;;;;;;;;;;;;17.44;48.89;100430.38;5075522;28;1986;-51
2023/10/21 07:14:49;;;;;;;;;;;;;;;17.26;48.31;100436.56;5090468;28;909;-48
2023/10/21 07:17:15;;;;;;;;;;;;;;;17.09;48.10;100435.03;5075359;28;1126;-53
2023/10/21 07:19:41;;;;;;;;;;;;;;;17.02;47.48;100433.72;5088945;28;1138;-52
2023/10/21 07:22:07;;;;;;;;;;;;;;;16.95;47.29;100420.31;5075862;28;1074;-47
2023/10/21 07:24:33;;;;;;;;;;;;;;;16.97;46.94;100429.09;5084524;28;1131;-53
2023/10/21 07:26:58;;;;;;;;;;;;;;;16.91;46.70;100425.56;5080874;28;1229;-50
2023/10/21 07:29:24;;;;;;;;;;;;;;;16.88;46.99;100425.25;5083536;28;1066;-51
2023/10/21 07:31:49;;;;;;;;;;;;;;;16.84;46.74;100435.16;5089093;28;993;-50
2023/10/21 07:34:15;;;;;;;;;;;;;;;16.74;46.54;100431.38;5075346;28;2300;-50
2023/10/21 07:36:40;;;;;;;;;;;;;;;16.70;46.78;100430.28;5091948;28;1078;-53
2023/10/21 07:39:06;;;;;;;;;;;;;;;16.71;46.50;100426.44;5083408;28;1079;-52
2023/10/21 07:41:32;;;;;;;;;;;;;;;17.82;48.14;100427.00;5087092;28;1276;-50
2023/10/21 07:43:58;;;;;;;;;;;;;;;17.18;48.62;100428.94;5081995;28;1222;-49
2023/10/21 07:46:23;;;;;;;;;;;;;;;16.97;48.29;100423.59;5086776;28;1285;-51
2023/10/21 07:48:49;;;;;;;;;;;;;;;16.96;47.54;100427.44;5082694;28;1155;-50
2023/10/21 07:51:15;;;;;;;;;;;;;;;16.86;47.22;100436.53;5070953;28;1277;-53
2023/10/21 07:53:40;;;;;;;;;;;;;;;16.86;47.13;100427.50;5086286;28;1905;-47
2023/10/21 07:56:06;;;;;;;;;;;;;;;17.48;48.48;100435.31;5083259;28;1174;-50
2023/10/21 07:58:31;;;;;;;;;;;;;;;17.09;48.29;100437.78;5083498;28;1305;-47
2023/10/21 08:00:57;;;;;;;;;;;;;;;17.02;48.02;100436.47;5093055;28;1387;-50
2023/10/21 08:03:22;;;;;;;;;;;;;;;16.98;47.41;100436.19;5097589;28;2212;-51
2023/10/21 08:05:48;;;;;;;;;;;;;;;17.04;47.93;100432.34;5078534;28;1015;-53
2023/10/21 08:08:13;;;;;;;;;;;;;;;17.37;48.68;100429.88;5079831;28;1056;-48
2023/10/21 08:10:39;;;;;;;;;;;;;;;17.21;48.06;100433.88;5098850;28;1015;-51
2023/10/21 08:13:04;;;;;;;;;;;;;;;17.09;47.50;100432.28;5097943;28;1972;-49
2023/10/21 08:15:31;;;;;;;;;;;;;;;17.08;47.15;100436.16;5090866;28;998;-53
2023/10/21 08:17:57;;;;;;;;;;;;;;;16.97;47.10;100422.75;5092790;28;1058;-51
2023/10/21 08:20:24;;;;;;;;;;;;;;;16.93;47.05;100439.00;5098182;28;1105;-51
2023/10/21 08:22:49;;;;;;;;;;;;;;;16.86;46.66;100436.53;5097363;28;979;-49
2023/10/21 08:25:15;;;;;;;;;;;;;;;16.90;46.62;100442.28;5083798;28;1293;-49
2023/10/21 08:27:40;;;;;;;;;;;;;;;16.86;46.65;100438.47;5078409;28;1097;-45
2023/10/21 08:30:09;;;;;;;;;;;;;;;16.86;46.58;100436.53;5078296;28;1051;-51
2023/10/21 08:32:35;;;;;;;;;;;;;;;16.71;46.73;100444.84;5092759;28;1983;-53
2023/10/21 08:35:00;;;;;;;;;;;;;;;16.77;46.56;100439.06;5091180;28;2745;-53
2023/10/21 08:37:26;;;;;;;;;;;;;;;16.74;46.54;100449.78;5096613;28;1050;-52
2023/10/21 08:39:51;;;;;;;;;;;;;;;16.78;46.70;100439.88;5098063;28;1002;-52
2023/10/21 08:42:17;;;;;;;;;;;;;;;17.32;48.10;100451.94;5098494;28;1058;-46
2023/10/21 08:44:46;;;;;;;;;;;;;;;17.09;47.75;100439.72;5090586;28;1026;-52
2023/10/21 08:47:12;;;;;;;;;;;;;;;16.93;47.47;100456.28;5079215;28;1229;-47
2023/10/21 08:49:37;;;;;;;;;;;;;;;16.94;47.32;100443.38;5072191;28;1121;-49
2023/10/21 08:52:03;;;;;;;;;;;;;;;16.92;46.86;100451.09;5073383;28;1198;-49
2023/10/21 08:54:28;;;;;;;;;;;;;;;16.89;46.79;100448.91;5077684;28;1906;-48
2023/10/21 08:56:54;;;;;;;;;;;;;;;18.03;47.78;100449.66;5080385;28;1205;-52
2023/10/21 08:59:19;;;;;;;;;;;;;;;17.34;48.66;100444.19;5097644;28;1023;-52
2023/10/21 09:01:48;;;;;;;;;;;;;;;17.21;47.99;100444.88;5083374;28;1018;-49
2023/10/21 09:04:13;;;;;;;;;;;;;;;17.14;47.69;100445.19;5093127;28;2222;-51
2023/10/21 09:06:55;;;;;;;;;;;;;;;17.06;47.55;100449.34;5091324;28;1174;-47
2023/10/21 09:09:26;;;;;;;;;;;;;;;17.03;46.93;100444.41;5082133;28;1377;-49
2023/10/21 09:12:02;;;;;;;;;;;;;;;17.01;47.10;100438.41;5091774;28;1073;-52
2023/10/21 09:14:29;;;;;;;;;;;;;;;17.07;46.72;100429.00;5087284;28;1910;-50
2023/10/21 09:16:55;;;;;;;;;;;;;;;16.87;46.87;100434.59;5081096;28;1129;-50
2023/10/21 09:19:24;;;;;;;;;;;;;;;17.01;46.40;100430.16;5081552;28;928;-48
2023/10/21 09:21:49;;;;;;;;;;;;;;;16.92;46.65;100431.88;5094806;28;1269;-49
2023/10/21 09:24:24;;;;;;;;;;;;;;;16.89;46.78;100435.19;5085901;28;1002;-50
2023/10/21 09:26:50;;;;;;;;;;;;;;;16.89;46.73;100424.19;5089519;28;1174;-50
2023/10/21 09:29:18;;;;;;;;;;;;;;;16.92;46.36;100427.19;5066838;28;1034;-51
2023/10/21 09:31:44;;;;;;;;;;;;;;;16.89;46.38;100418.69;5082845;28;1070;-46
2023/10/21 09:34:10;;;;;;;;;;;;;;;16.85;46.66;100417.59;5096844;28;1972;-51
2023/10/21 09:36:39;;;;;;;;;;;;;;;16.76;46.66;100414.63;5078826;28;1122;-47
2023/10/21 09:39:05;;;;;;;;;;;;;;;16.82;46.73;100415.44;5065462;28;1148;-47
2023/10/21 09:41:30;;;;;;;;;;;;;;;18.15;47.58;100415.44;5096508;28;1132;-48
2023/10/21 09:43:56;;;;;;;;;;;;;;;17.39;48.77;100413.94;5078520;28;1031;-47
2023/10/21 09:46:22;;;;;;;;;;;;;;;17.24;48.50;100411.31;5059285;28;1138;-52
2023/10/21 09:48:47;;;;;;;;;;;;;;;17.12;48.09;100411.66;5071724;28;1167;-49
2023/10/21 09:51:13;;;;;;;;;;;;;;;17.09;47.81;100415.78;5090232;28;1010;-46
2023/10/21 09:53:40;;;;;;;;;;;;;;;17.13;47.33;100410.56;5068606;28;1919;-46
2023/10/21 09:56:07;;;;;;;;;;;;;;;17.10;47.32;100414.69;5076520;28;1078;-45
2023/10/21 09:58:32;;;;;;;;;;;;;;;17.11;47.11;100415.53;5060889;28;996;-50
2023/10/21 10:01:02;;;;;;;;;;;;;;;17.01;47.29;100413.69;5068774;28;1032;-48
2023/10/21 10:03:27;;;;;;;;;;;;;;;17.00;46.83;100406.53;5076572;28;2331;-44
2023/10/21 10:05:53;;;;;;;;;;;;;;;17.15;46.88;100404.78;5058057;28;1035;-50
2023/10/21 10:08:18;;;;;;;;;;;;;;;17.03;47.06;100396.91;5076226;28;1043;-49
2023/10/21 10:10:45;;;;;;;;;;;;;;;17.06;46.89;100405.38;5086361;28;1010;-50
2023/10/21 10:13:11;;;;;;;;;;;;;;;17.03;46.67;100394.97;5082174;28;1906;-49
2023/10/21 10:15:41;;;;;;;;;;;;;;;17.04;46.73;100407.63;5073186;28;901;-48
2023/10/21 10:18:19;;;;;;;;;;;;;;;17.08;46.67;100394.13;5092031;28;1117;-48
2023/10/21 10:20:46;;;;;;;;;;;;;;;17.00;46.58;100394.72;5088817;28;1217;-51
2023/10/21 10:23:12;;;;;;;;;;;;;;;17.02;46.65;100387.84;5089859;28;1078;-48
2023/10/21 10:25:44;;;;;;;;;;;;;;;16.98;46.78;100400.50;5070389;28;1010;-54
2023/10/21 10:28:10;;;;;;;;;;;;;;;17.08;46.64;100383.97;5094155;28;918;-52
2023/10/21 10:30:43;;;;;;;;;;;;;;;16.97;46.45;100390.63;5082445;28;1122;-52
2023/10/21 10:33:12;;;;;;;;;;;;;;;16.97;46.43;100398.88;5076103;28;2325;-51
2023/10/21 10:35:47;;;;;;;;;;;;;;;17.00;46.53;100389.22;5095875;28;1069;-50
2023/10/21 10:38:17;;;;;;;;;;;;;;;16.91;46.60;100391.75;5094587;28;1085;-51
2023/10/21 10:40:43;;;;;;;;;;;;;;;16.93;46.76;100384.88;5088995;28;1099;-48
2023/10/21 10:43:11;;;;;;;;;;;;;;;16.98;46.73;100389.50;5075939;28;1081;-52
2023/10/21 10:45:37;;;;;;;;;;;;;;;16.93;46.77;100387.63;5092466;28;1019;-52
2023/10/21 10:48:03;;;;;;;;;;;;;;;16.95;46.63;100381.84;5096412;28;1053;-51
2023/10/21 10:50:31;;;;;;;;;;;;;;;16.98;46.45;100392.25;5081327;28;1026;-48
2023/10/21 10:52:57;;;;;;;;;;;;;;;16.97;46.40;100385.16;5094894;28;1965;-50
2023/10/21 10:55:23;;;;;;;;;;;;;;;17.01;46.44;100382.63;5086044;28;1000;-46
2023/10/21 10:57:49;;;;;;;;;;;;;;;17.04;46.25;100380.16;5078368;28;1173;-45
2023/10/21 11:00:20;;;;;;;;;;;;;;;17.00;46.41;100379.06;5082194;28;1249;-47
2023/10/21 11:02:46;;;;;;;;;;;;;;;17.04;46.24;100374.66;5084810;28;1107;-44
2023/10/21 11:05:16;;;;;;;;;;;;;;;16.95;46.62;100381.84;5082183;28;1816;-49
2023/10/21 11:07:41;;;;;;;;;;;;;;;16.99;46.44;100380.19;5080595;28;1250;-47
2023/10/21 11:10:07;;;;;;;;;;;;;;;16.99;46.50;100382.91;5086105;28;1125;-48
2023/10/21 11:12:32;;;;;;;;;;;;;;;16.91;46.63;100373.38;5099606;28;1906;-48
2023/10/21 11:15:00;;;;;;;;;;;;;;;16.92;46.39;100368.69;5097849;28;1150;-44
2023/10/21 11:17:26;;;;;;;;;;;;;;;16.98;46.28;100373.03;5084483;28;1144;-46
2023/10/21 11:19:51;;;;;;;;;;;;;;;16.99;46.51;100366.44;5088686;28;1301;-49
2023/10/21 11:22:26;;;;;;;;;;;;;;;16.97;46.59;100374.16;5093415;28;1241;-45
2023/10/21 11:24:55;;;;;;;;;;;;;;;16.86;46.89;100372.56;5099473;28;1114;-47
2023/10/21 11:27:22;;;;;;;;;;;;;;;16.94;46.54;100363.72;5090373;28;1206;-47
2023/10/21 11:29:51;;;;;;;;;;;;;;;16.86;46.50;100364.31;5084974;28;1205;-47
2023/10/21 11:32:23;;;;;;;;;;;;;;;16.92;46.69;100368.69;5082460;28;1206;-46
2023/10/21 11:34:49;;;;;;;;;;;;;;;16.97;46.50;100345.84;5071817;28;1854;-44
2023/10/21 11:37:14;;;;;;;;;;;;;;;16.95;46.53;100354.38;5083660;28;1245;-49
2023/10/21 11:39:40;;;;;;;;;;;;;;;16.87;46.71;100366.78;5078985;28;1085;-51
2023/10/21 11:42:13;;;;;;;;;;;;;;;16.94;46.74;100352.72;5094716;28;1308;-48
2023/10/21 11:44:39;;;;;;;;;;;;;;;16.86;46.83;100361.59;5097828;28;1181;-47
2023/10/21 11:47:04;;;;;;;;;;;;;;;16.81;47.11;100359.66;5073969;28;1040;-46
2023/10/21 11:49:33;;;;;;;;;;;;;;;16.90;46.72;100357.16;5080975;28;1271;-48
2023/10/21 11:51:59;;;;;;;;;;;;;;;16.88;46.63;100351.13;5079094;28;1071;-48
2023/10/21 11:54:35;;;;;;;;;;;;;;;16.92;46.67;100360.47;5081310;28;1975;-47
2023/10/21 12:39:19;;;;;;;;;;;;;;;16.95;46.80;100351.63;5087339;28;1424;-47
2023/10/21 12:41:45;;;;;;;;;;;;;;;16.93;46.97;100349.19;5083084;28;1642;-52
2023/10/21 12:44:13;;;;;;;;;;;;;;;17.02;46.37;100346.63;5081080;28;1361;-49
2023/10/21 12:46:40;;;;;;;;;;;;;;;16.96;46.89;100349.69;5084623;28;1226;-49
2023/10/21 12:49:16;;;;;;;;;;;;;;;16.96;46.58;100345.03;5088669;28;1253;-49
2023/10/21 12:51:41;;;;;;;;;;;;;;;16.95;46.76;100348.09;5089746;28;1022;-45
2023/10/21 12:54:10;;;;;;;;;;;;;;;17.00;46.56;100343.38;5059471;28;1902;-48
2023/10/21 12:56:36;;;;;;;;;;;;;;;17.01;46.65;100347.75;5084597;28;1344;-46
2023/10/21 12:59:02;;;;;;;;;;;;;;;17.00;46.54;100346.13;5089330;28;1098;-47
2023/10/21 13:01:28;;;;;;;;;;;;;;;16.98;46.78;100348.31;5089958;28;1284;-46
2023/10/21 13:03:56;;;;;;;;;;;;;;;16.95;46.65;100353.56;5084766;28;2454;-50
2023/10/21 13:06:21;;;;;;;;;;;;;;;16.91;46.79;100348.66;5081306;28;1147;-47
2023/10/21 13:08:47;;;;;;;;;;;;;;;16.96;46.47;100345.03;5086947;28;1150;-52
2023/10/21 13:11:15;;;;;;;;;;;;;;;16.97;46.57;100346.69;5084591;28;1317;-47
2023/10/21 13:13:40;;;;;;;;;;;;;;;17.02;46.56;100346.63;5086116;28;1902;-51
2023/10/21 13:16:07;;;;;;;;;;;;;;;17.05;46.49;100348.81;5087850;28;1102;-51
2023/10/21 13:18:33;;;;;;;;;;;;;;;16.99;46.41;100347.22;5086641;28;1179;-51
2023/10/21 13:20:59;;;;;;;;;;;;;;;17.07;46.37;100349.34;5085174;28;1317;-48
2023/10/21 13:23:25;;;;;;;;;;;;;;;16.96;46.59;100350.53;5097257;28;971;-50
2023/10/21 13:25:51;;;;;;;;;;;;;;;16.98;46.63;100342.81;5079374;28;1071;-51